sensor_id;sensor_type;location;lat;lon;timestamp;P1;durP1;ratioP1;P2;durP2;ratioP2
72547;SDS011;60570;50.848;6.776;2022-10-16T00:00:47;1.85;;;0.60;;
72547;SDS011;60570;50.848;6.776;2022-10-16T00:01:47;3.28;;;0.90;;
72547;SDS011;60570;50.848;6.776;2022-10-16T00:02:47;1.95;;;0.70;;
72547;SDS011;60570;50.848;6.776;2022-10-16T00:03:48;1.38;;;0.50;;
72547;SDS011;60570;50.848;6.776;2022-10-16T00:04:49;2.88;;;0.70;;
72547;SDS011;60570;50.848;6.776;2022-10-16T00:05:49;2.22;;;0.70;;
72547;SDS011;60570;50.848;6.776;2022-10-16T00:06:50;1.85;;;0.60;;
72547;SDS011;60570;50.848;6.776;2022-10-16T00:07:51;2.72;;;0.75;;
72547;SDS011;60570;50.848;6.776;2022-10-16T00:08:51;3.35;;;0.65;;
72547;SDS011;60570;50.848;6.776;2022-10-16T00:09:52;1.00;;;0.50;;
72547;SDS011;60570;50.848;6.776;2022-10-16T00:10:57;1.85;;;0.70;;
72547;SDS011;60570;50.848;6.776;2022-10-16T00:11:59;1.10;;;0.50;;
72547;SDS011;60570;50.848;6.776;2022-10-16T00:12:59;1.50;;;0.55;;
72547;SDS011;60570;50.848;6.776;2022-10-16T00:14:01;2.65;;;0.63;;
72547;SDS011;60570;50.848;6.776;2022-10-16T00:15:03;1.77;;;0.70;;
72547;SDS011;60570;50.848;6.776;2022-10-16T00:16:05;2.72;;;0.68;;
72547;SDS011;60570;50.848;6.776;2022-10-16T00:17:05;2.95;;;0.68;;
72547;SDS011;60570;50.848;6.776;2022-10-16T00:18:06;2.75;;;0.68;;
72547;SDS011;60570;50.848;6.776;2022-10-16T00:19:06;1.58;;;0.60;;
72547;SDS011;60570;50.848;6.776;2022-10-16T00:20:07;2.05;;;0.68;;
72547;SDS011;60570;50.848;6.776;2022-10-16T00:21:09;1.13;;;0.50;;
72547;SDS011;60570;50.848;6.776;2022-10-16T00:22:12;1.38;;;0.60;;
72547;SDS011;60570;50.848;6.776;2022-10-16T00:23:12;1.77;;;0.60;;
72547;SDS011;60570;50.848;6.776;2022-10-16T00:24:13;1.60;;;0.50;;
72547;SDS011;60570;50.848;6.776;2022-10-16T00:25:13;2.17;;;0.60;;
72547;SDS011;60570;50.848;6.776;2022-10-16T00:26:15;3.00;;;0.80;;
72547;SDS011;60570;50.848;6.776;2022-10-16T00:27:16;1.77;;;0.60;;
72547;SDS011;60570;50.848;6.776;2022-10-16T00:28:16;1.88;;;0.50;;
72547;SDS011;60570;50.848;6.776;2022-10-16T00:29:17;2.72;;;0.70;;
72547;SDS011;60570;50.848;6.776;2022-10-16T00:30:17;1.88;;;0.65;;
72547;SDS011;60570;50.848;6.776;2022-10-16T00:31:19;2.58;;;0.70;;
72547;SDS011;60570;50.848;6.776;2022-10-16T00:32:21;5.22;;;0.60;;
72547;SDS011;60570;50.848;6.776;2022-10-16T00:33:21;2.00;;;0.50;;
72547;SDS011;60570;50.848;6.776;2022-10-16T00:34:22;1.38;;;0.50;;
72547;SDS011;60570;50.848;6.776;2022-10-16T00:35:23;1.83;;;0.60;;
72547;SDS011;60570;50.848;6.776;2022-10-16T00:36:24;1.75;;;0.60;;
72547;SDS011;60570;50.848;6.776;2022-10-16T00:37:25;1.58;;;0.57;;
72547;SDS011;60570;50.848;6.776;2022-10-16T00:38:26;1.52;;;0.52;;
72547;SDS011;60570;50.848;6.776;2022-10-16T00:39:26;2.45;;;0.50;;
72547;SDS011;60570;50.848;6.776;2022-10-16T00:40:27;3.33;;;0.68;;
72547;SDS011;60570;50.848;6.776;2022-10-16T00:41:28;6.97;;;0.70;;
72547;SDS011;60570;50.848;6.776;2022-10-16T00:42:30;1.90;;;0.45;;
72547;SDS011;60570;50.848;6.776;2022-10-16T00:44:49;2.03;;;0.43;;
72547;SDS011;60570;50.848;6.776;2022-10-16T00:46:56;2.13;;;0.50;;
72547;SDS011;60570;50.848;6.776;2022-10-16T00:47:56;1.88;;;0.60;;
72547;SDS011;60570;50.848;6.776;2022-10-16T00:51:09;1.70;;;0.57;;
72547;SDS011;60570;50.848;6.776;2022-10-16T00:52:10;1.45;;;0.50;;
72547;SDS011;60570;50.848;6.776;2022-10-16T00:53:11;1.17;;;0.55;;
72547;SDS011;60570;50.848;6.776;2022-10-16T00:54:16;1.40;;;0.50;;
72547;SDS011;60570;50.848;6.776;2022-10-16T00:55:20;1.38;;;0.50;;
72547;SDS011;60570;50.848;6.776;2022-10-16T00:56:22;2.45;;;0.60;;
72547;SDS011;60570;50.848;6.776;2022-10-16T00:57:22;1.40;;;0.50;;
72547;SDS011;60570;50.848;6.776;2022-10-16T00:58:23;1.83;;;0.60;;
72547;SDS011;60570;50.848;6.776;2022-10-16T00:59:28;1.63;;;0.60;;
72547;SDS011;60570;50.848;6.776;2022-10-16T01:00:35;1.90;;;0.50;;
72547;SDS011;60570;50.848;6.776;2022-10-16T01:01:36;2.10;;;0.45;;
72547;SDS011;60570;50.848;6.776;2022-10-16T01:02:36;1.55;;;0.60;;
72547;SDS011;60570;50.848;6.776;2022-10-16T01:03:37;1.48;;;0.60;;
72547;SDS011;60570;50.848;6.776;2022-10-16T01:04:42;1.63;;;0.60;;
72547;SDS011;60570;50.848;6.776;2022-10-16T01:05:57;1.58;;;0.50;;
72547;SDS011;60570;50.848;6.776;2022-10-16T01:07:10;1.52;;;0.50;;
72547;SDS011;60570;50.848;6.776;2022-10-16T01:08:21;1.02;;;0.47;;
72547;SDS011;60570;50.848;6.776;2022-10-16T01:10:05;2.13;;;0.60;;
72547;SDS011;60570;50.848;6.776;2022-10-16T01:12:52;1.15;;;0.63;;
72547;SDS011;60570;50.848;6.776;2022-10-16T01:14:00;2.28;;;0.68;;
72547;SDS011;60570;50.848;6.776;2022-10-16T01:15:13;1.77;;;0.60;;
72547;SDS011;60570;50.848;6.776;2022-10-16T01:16:29;2.65;;;0.63;;
72547;SDS011;60570;50.848;6.776;2022-10-16T01:18:54;1.42;;;0.52;;
72547;SDS011;60570;50.848;6.776;2022-10-16T01:21:28;0.73;;;0.40;;
72547;SDS011;60570;50.848;6.776;2022-10-16T01:22:35;3.50;;;0.50;;
72547;SDS011;60570;50.848;6.776;2022-10-16T01:28:14;1.67;;;0.50;;
72547;SDS011;60570;50.848;6.776;2022-10-16T01:29:33;1.55;;;0.60;;
72547;SDS011;60570;50.848;6.776;2022-10-16T01:30:39;2.33;;;0.50;;
72547;SDS011;60570;50.848;6.776;2022-10-16T01:31:43;0.85;;;0.40;;
72547;SDS011;60570;50.848;6.776;2022-10-16T01:34:03;4.50;;;0.52;;
72547;SDS011;60570;50.848;6.776;2022-10-16T01:35:11;1.63;;;0.40;;
72547;SDS011;60570;50.848;6.776;2022-10-16T01:36:19;1.92;;;0.57;;
72547;SDS011;60570;50.848;6.776;2022-10-16T01:37:44;1.25;;;0.40;;
72547;SDS011;60570;50.848;6.776;2022-10-16T01:38:51;1.20;;;0.45;;
72547;SDS011;60570;50.848;6.776;2022-10-16T01:39:54;2.17;;;0.73;;
72547;SDS011;60570;50.848;6.776;2022-10-16T01:41:01;1.50;;;0.50;;
72547;SDS011;60570;50.848;6.776;2022-10-16T01:42:11;1.88;;;0.60;;
72547;SDS011;60570;50.848;6.776;2022-10-16T01:43:18;1.38;;;0.40;;
72547;SDS011;60570;50.848;6.776;2022-10-16T01:44:26;1.65;;;0.52;;
72547;SDS011;60570;50.848;6.776;2022-10-16T01:45:31;1.17;;;0.65;;
72547;SDS011;60570;50.848;6.776;2022-10-16T01:46:35;1.13;;;0.45;;
72547;SDS011;60570;50.848;6.776;2022-10-16T01:47:38;2.03;;;0.60;;
72547;SDS011;60570;50.848;6.776;2022-10-16T01:48:39;1.55;;;0.60;;
72547;SDS011;60570;50.848;6.776;2022-10-16T01:49:41;3.10;;;0.68;;
72547;SDS011;60570;50.848;6.776;2022-10-16T01:50:44;1.88;;;0.68;;
72547;SDS011;60570;50.848;6.776;2022-10-16T01:51:50;1.05;;;0.40;;
72547;SDS011;60570;50.848;6.776;2022-10-16T01:52:55;1.80;;;0.60;;
72547;SDS011;60570;50.848;6.776;2022-10-16T01:53:58;1.20;;;0.40;;
72547;SDS011;60570;50.848;6.776;2022-10-16T01:55:02;0.98;;;0.55;;
72547;SDS011;60570;50.848;6.776;2022-10-16T01:56:07;1.63;;;0.60;;
72547;SDS011;60570;50.848;6.776;2022-10-16T01:58:12;2.13;;;0.60;;
72547;SDS011;60570;50.848;6.776;2022-10-16T01:59:15;1.42;;;0.50;;
72547;SDS011;60570;50.848;6.776;2022-10-16T02:00:19;2.08;;;0.52;;
72547;SDS011;60570;50.848;6.776;2022-10-16T02:01:23;0.93;;;0.40;;
72547;SDS011;60570;50.848;6.776;2022-10-16T02:02:26;1.52;;;0.40;;
72547;SDS011;60570;50.848;6.776;2022-10-16T02:03:30;0.77;;;0.30;;
72547;SDS011;60570;50.848;6.776;2022-10-16T02:04:55;1.33;;;0.40;;
72547;SDS011;60570;50.848;6.776;2022-10-16T02:06:06;1.05;;;0.40;;
72547;SDS011;60570;50.848;6.776;2022-10-16T02:07:07;1.20;;;0.43;;
72547;SDS011;60570;50.848;6.776;2022-10-16T02:08:07;1.42;;;0.50;;
72547;SDS011;60570;50.848;6.776;2022-10-16T02:09:08;1.65;;;0.60;;
72547;SDS011;60570;50.848;6.776;2022-10-16T02:10:09;1.85;;;0.45;;
72547;SDS011;60570;50.848;6.776;2022-10-16T02:11:10;1.38;;;0.40;;
72547;SDS011;60570;50.848;6.776;2022-10-16T02:12:14;0.88;;;0.32;;
72547;SDS011;60570;50.848;6.776;2022-10-16T02:13:26;2.22;;;0.60;;
72547;SDS011;60570;50.848;6.776;2022-10-16T02:14:31;1.13;;;0.40;;
72547;SDS011;60570;50.848;6.776;2022-10-16T02:15:32;1.42;;;0.50;;
72547;SDS011;60570;50.848;6.776;2022-10-16T02:16:43;2.65;;;0.40;;
72547;SDS011;60570;50.848;6.776;2022-10-16T02:17:45;1.65;;;0.50;;
72547;SDS011;60570;50.848;6.776;2022-10-16T02:18:46;1.77;;;0.60;;
72547;SDS011;60570;50.848;6.776;2022-10-16T02:19:47;1.13;;;0.50;;
72547;SDS011;60570;50.848;6.776;2022-10-16T02:20:53;0.88;;;0.35;;
72547;SDS011;60570;50.848;6.776;2022-10-16T02:21:58;1.67;;;0.50;;
72547;SDS011;60570;50.848;6.776;2022-10-16T02:23:03;2.03;;;0.40;;
72547;SDS011;60570;50.848;6.776;2022-10-16T02:25:27;1.25;;;0.50;;
72547;SDS011;60570;50.848;6.776;2022-10-16T02:26:43;2.45;;;0.60;;
72547;SDS011;60570;50.848;6.776;2022-10-16T02:29:04;1.70;;;0.50;;
72547;SDS011;60570;50.848;6.776;2022-10-16T02:30:14;1.20;;;0.35;;
72547;SDS011;60570;50.848;6.776;2022-10-16T02:31:16;1.02;;;0.47;;
72547;SDS011;60570;50.848;6.776;2022-10-16T02:32:23;0.93;;;0.40;;
72547;SDS011;60570;50.848;6.776;2022-10-16T02:33:30;0.73;;;0.40;;
72547;SDS011;60570;50.848;6.776;2022-10-16T02:34:33;1.80;;;0.50;;
72547;SDS011;60570;50.848;6.776;2022-10-16T02:35:35;2.13;;;0.80;;
72547;SDS011;60570;50.848;6.776;2022-10-16T02:36:36;1.55;;;0.50;;
72547;SDS011;60570;50.848;6.776;2022-10-16T02:37:37;1.10;;;0.45;;
72547;SDS011;60570;50.848;6.776;2022-10-16T02:38:39;2.28;;;0.40;;
72547;SDS011;60570;50.848;6.776;2022-10-16T02:39:40;1.52;;;0.50;;
72547;SDS011;60570;50.848;6.776;2022-10-16T02:40:41;1.15;;;0.40;;
72547;SDS011;60570;50.848;6.776;2022-10-16T02:41:42;1.55;;;0.57;;
72547;SDS011;60570;50.848;6.776;2022-10-16T02:42:43;1.67;;;0.50;;
72547;SDS011;60570;50.848;6.776;2022-10-16T02:43:43;2.33;;;0.40;;
72547;SDS011;60570;50.848;6.776;2022-10-16T02:44:44;1.38;;;0.38;;
72547;SDS011;60570;50.848;6.776;2022-10-16T02:45:44;2.10;;;0.50;;
72547;SDS011;60570;50.848;6.776;2022-10-16T02:46:45;2.03;;;0.47;;
72547;SDS011;60570;50.848;6.776;2022-10-16T02:47:45;2.20;;;0.40;;
72547;SDS011;60570;50.848;6.776;2022-10-16T02:48:46;1.50;;;0.50;;
72547;SDS011;60570;50.848;6.776;2022-10-16T02:49:46;2.75;;;0.50;;
72547;SDS011;60570;50.848;6.776;2022-10-16T02:50:46;1.25;;;0.30;;
72547;SDS011;60570;50.848;6.776;2022-10-16T02:51:47;1.98;;;0.45;;
72547;SDS011;60570;50.848;6.776;2022-10-16T02:52:48;1.67;;;0.30;;
72547;SDS011;60570;50.848;6.776;2022-10-16T02:53:48;1.25;;;0.40;;
72547;SDS011;60570;50.848;6.776;2022-10-16T02:54:49;1.05;;;0.45;;
72547;SDS011;60570;50.848;6.776;2022-10-16T02:55:49;1.13;;;0.40;;
72547;SDS011;60570;50.848;6.776;2022-10-16T02:56:50;0.77;;;0.30;;
72547;SDS011;60570;50.848;6.776;2022-10-16T02:57:50;0.85;;;0.38;;
72547;SDS011;60570;50.848;6.776;2022-10-16T02:58:50;1.95;;;0.50;;
72547;SDS011;60570;50.848;6.776;2022-10-16T02:59:51;1.77;;;0.40;;
72547;SDS011;60570;50.848;6.776;2022-10-16T03:00:52;1.38;;;0.50;;
72547;SDS011;60570;50.848;6.776;2022-10-16T03:01:52;2.58;;;0.52;;
72547;SDS011;60570;50.848;6.776;2022-10-16T03:02:52;1.85;;;1.10;;
72547;SDS011;60570;50.848;6.776;2022-10-16T03:03:53;0.47;;;0.30;;
72547;SDS011;60570;50.848;6.776;2022-10-16T03:04:54;1.25;;;0.43;;
72547;SDS011;60570;50.848;6.776;2022-10-16T03:05:54;1.65;;;0.45;;
72547;SDS011;60570;50.848;6.776;2022-10-16T03:06:55;1.00;;;0.30;;
72547;SDS011;60570;50.848;6.776;2022-10-16T03:07:55;2.22;;;0.40;;
72547;SDS011;60570;50.848;6.776;2022-10-16T03:08:56;2.28;;;0.43;;
72547;SDS011;60570;50.848;6.776;2022-10-16T03:09:56;1.35;;;0.50;;
72547;SDS011;60570;50.848;6.776;2022-10-16T03:11:00;1.20;;;0.40;;
72547;SDS011;60570;50.848;6.776;2022-10-16T03:12:00;3.20;;;0.40;;
72547;SDS011;60570;50.848;6.776;2022-10-16T03:13:01;1.00;;;0.30;;
72547;SDS011;60570;50.848;6.776;2022-10-16T03:14:01;3.03;;;0.65;;
72547;SDS011;60570;50.848;6.776;2022-10-16T03:15:02;2.17;;;0.40;;
72547;SDS011;60570;50.848;6.776;2022-10-16T03:16:03;0.82;;;0.28;;
72547;SDS011;60570;50.848;6.776;2022-10-16T03:17:04;1.15;;;0.40;;
72547;SDS011;60570;50.848;6.776;2022-10-16T03:18:04;1.42;;;0.30;;
72547;SDS011;60570;50.848;6.776;2022-10-16T03:19:05;0.73;;;0.20;;
72547;SDS011;60570;50.848;6.776;2022-10-16T03:20:06;0.73;;;0.25;;
72547;SDS011;60570;50.848;6.776;2022-10-16T03:21:06;1.42;;;0.45;;
72547;SDS011;60570;50.848;6.776;2022-10-16T03:22:07;1.38;;;0.40;;
72547;SDS011;60570;50.848;6.776;2022-10-16T03:23:08;0.73;;;0.30;;
72547;SDS011;60570;50.848;6.776;2022-10-16T03:24:09;0.68;;;0.30;;
72547;SDS011;60570;50.848;6.776;2022-10-16T03:25:09;1.05;;;0.30;;
72547;SDS011;60570;50.848;6.776;2022-10-16T03:26:10;1.17;;;0.30;;
72547;SDS011;60570;50.848;6.776;2022-10-16T03:27:10;1.88;;;0.30;;
72547;SDS011;60570;50.848;6.776;2022-10-16T03:28:10;0.35;;;0.20;;
72547;SDS011;60570;50.848;6.776;2022-10-16T03:29:11;1.65;;;0.30;;
72547;SDS011;60570;50.848;6.776;2022-10-16T03:30:12;1.38;;;0.40;;
72547;SDS011;60570;50.848;6.776;2022-10-16T03:31:12;2.78;;;0.40;;
72547;SDS011;60570;50.848;6.776;2022-10-16T03:32:13;1.98;;;0.38;;
72547;SDS011;60570;50.848;6.776;2022-10-16T03:33:13;0.82;;;0.30;;
72547;SDS011;60570;50.848;6.776;2022-10-16T03:34:13;1.27;;;0.20;;
72547;SDS011;60570;50.848;6.776;2022-10-16T03:35:14;0.88;;;0.35;;
72547;SDS011;60570;50.848;6.776;2022-10-16T03:36:14;1.08;;;0.32;;
72547;SDS011;60570;50.848;6.776;2022-10-16T03:37:15;1.85;;;0.30;;
72547;SDS011;60570;50.848;6.776;2022-10-16T03:38:16;0.75;;;0.28;;
72547;SDS011;60570;50.848;6.776;2022-10-16T03:39:16;4.05;;;0.50;;
72547;SDS011;60570;50.848;6.776;2022-10-16T03:40:17;0.73;;;0.32;;
72547;SDS011;60570;50.848;6.776;2022-10-16T03:41:17;1.38;;;0.30;;
72547;SDS011;60570;50.848;6.776;2022-10-16T03:42:18;1.13;;;0.40;;
72547;SDS011;60570;50.848;6.776;2022-10-16T03:43:18;0.75;;;0.40;;
72547;SDS011;60570;50.848;6.776;2022-10-16T03:44:19;1.10;;;0.25;;
72547;SDS011;60570;50.848;6.776;2022-10-16T03:45:19;0.88;;;0.30;;
72547;SDS011;60570;50.848;6.776;2022-10-16T03:46:20;1.05;;;0.35;;
72547;SDS011;60570;50.848;6.776;2022-10-16T03:47:20;1.10;;;0.30;;
72547;SDS011;60570;50.848;6.776;2022-10-16T03:48:23;0.73;;;0.28;;
72547;SDS011;60570;50.848;6.776;2022-10-16T03:49:23;0.68;;;0.25;;
72547;SDS011;60570;50.848;6.776;2022-10-16T03:50:24;1.42;;;0.43;;
72547;SDS011;60570;50.848;6.776;2022-10-16T03:51:24;1.75;;;0.40;;
72547;SDS011;60570;50.848;6.776;2022-10-16T03:52:25;1.10;;;0.38;;
72547;SDS011;60570;50.848;6.776;2022-10-16T03:53:25;0.63;;;0.30;;
72547;SDS011;60570;50.848;6.776;2022-10-16T03:54:26;1.05;;;0.30;;
72547;SDS011;60570;50.848;6.776;2022-10-16T03:55:26;1.08;;;0.30;;
72547;SDS011;60570;50.848;6.776;2022-10-16T03:56:26;3.08;;;0.32;;
72547;SDS011;60570;50.848;6.776;2022-10-16T03:57:27;1.38;;;0.35;;
72547;SDS011;60570;50.848;6.776;2022-10-16T03:58:27;1.15;;;0.40;;
72547;SDS011;60570;50.848;6.776;2022-10-16T03:59:28;0.98;;;0.43;;
72547;SDS011;60570;50.848;6.776;2022-10-16T04:00:28;1.52;;;0.20;;
72547;SDS011;60570;50.848;6.776;2022-10-16T04:01:28;0.90;;;0.40;;
72547;SDS011;60570;50.848;6.776;2022-10-16T04:02:29;0.30;;;0.10;;
72547;SDS011;60570;50.848;6.776;2022-10-16T04:03:29;0.98;;;0.40;;
72547;SDS011;60570;50.848;6.776;2022-10-16T04:04:30;0.85;;;0.30;;
72547;SDS011;60570;50.848;6.776;2022-10-16T04:05:30;0.70;;;0.20;;
72547;SDS011;60570;50.848;6.776;2022-10-16T04:06:31;1.08;;;0.30;;
72547;SDS011;60570;50.848;6.776;2022-10-16T04:07:31;1.23;;;0.30;;
72547;SDS011;60570;50.848;6.776;2022-10-16T04:08:32;1.58;;;0.40;;
72547;SDS011;60570;50.848;6.776;2022-10-16T04:09:35;0.65;;;0.30;;
72547;SDS011;60570;50.848;6.776;2022-10-16T04:10:35;1.85;;;0.35;;
72547;SDS011;60570;50.848;6.776;2022-10-16T04:11:35;2.03;;;0.20;;
72547;SDS011;60570;50.848;6.776;2022-10-16T04:12:36;0.73;;;0.30;;
72547;SDS011;60570;50.848;6.776;2022-10-16T04:13:36;1.88;;;0.40;;
72547;SDS011;60570;50.848;6.776;2022-10-16T04:14:37;0.50;;;0.20;;
72547;SDS011;60570;50.848;6.776;2022-10-16T04:15:37;0.65;;;0.30;;
72547;SDS011;60570;50.848;6.776;2022-10-16T04:16:38;1.73;;;0.30;;
72547;SDS011;60570;50.848;6.776;2022-10-16T04:17:39;1.75;;;0.20;;
72547;SDS011;60570;50.848;6.776;2022-10-16T04:18:39;0.82;;;0.30;;
72547;SDS011;60570;50.848;6.776;2022-10-16T04:19:40;0.98;;;0.20;;
72547;SDS011;60570;50.848;6.776;2022-10-16T04:20:40;1.13;;;0.30;;
72547;SDS011;60570;50.848;6.776;2022-10-16T04:21:40;0.88;;;0.20;;
72547;SDS011;60570;50.848;6.776;2022-10-16T04:22:41;1.42;;;0.30;;
72547;SDS011;60570;50.848;6.776;2022-10-16T04:23:42;0.75;;;0.20;;
72547;SDS011;60570;50.848;6.776;2022-10-16T04:24:42;0.80;;;0.15;;
72547;SDS011;60570;50.848;6.776;2022-10-16T04:25:43;0.77;;;0.30;;
72547;SDS011;60570;50.848;6.776;2022-10-16T04:26:43;1.10;;;0.35;;
72547;SDS011;60570;50.848;6.776;2022-10-16T04:27:44;1.75;;;0.20;;
72547;SDS011;60570;50.848;6.776;2022-10-16T04:28:44;0.88;;;0.30;;
72547;SDS011;60570;50.848;6.776;2022-10-16T04:29:44;0.88;;;0.30;;
72547;SDS011;60570;50.848;6.776;2022-10-16T04:30:45;2.25;;;0.40;;
72547;SDS011;60570;50.848;6.776;2022-10-16T04:31:46;1.10;;;0.20;;
72547;SDS011;60570;50.848;6.776;2022-10-16T04:32:49;1.60;;;0.30;;
72547;SDS011;60570;50.848;6.776;2022-10-16T04:33:51;4.78;;;0.40;;
72547;SDS011;60570;50.848;6.776;2022-10-16T04:34:51;0.73;;;0.28;;
72547;SDS011;60570;50.848;6.776;2022-10-16T04:36:01;0.63;;;0.20;;
72547;SDS011;60570;50.848;6.776;2022-10-16T04:37:03;0.40;;;0.15;;
72547;SDS011;60570;50.848;6.776;2022-10-16T04:38:03;0.77;;;0.20;;
72547;SDS011;60570;50.848;6.776;2022-10-16T04:39:04;0.45;;;0.20;;
72547;SDS011;60570;50.848;6.776;2022-10-16T04:40:04;0.70;;;0.20;;
72547;SDS011;60570;50.848;6.776;2022-10-16T04:41:05;1.00;;;0.22;;
72547;SDS011;60570;50.848;6.776;2022-10-16T04:42:07;1.17;;;0.32;;
72547;SDS011;60570;50.848;6.776;2022-10-16T04:43:07;0.55;;;0.20;;
72547;SDS011;60570;50.848;6.776;2022-10-16T04:44:08;1.30;;;0.30;;
72547;SDS011;60570;50.848;6.776;2022-10-16T04:45:09;0.32;;;0.20;;
72547;SDS011;60570;50.848;6.776;2022-10-16T04:46:09;0.40;;;0.20;;
72547;SDS011;60570;50.848;6.776;2022-10-16T04:47:10;0.90;;;0.40;;
72547;SDS011;60570;50.848;6.776;2022-10-16T04:48:11;0.68;;;0.20;;
72547;SDS011;60570;50.848;6.776;2022-10-16T04:49:11;0.35;;;0.10;;
72547;SDS011;60570;50.848;6.776;2022-10-16T04:50:12;1.60;;;0.30;;
72547;SDS011;60570;50.848;6.776;2022-10-16T04:51:12;1.17;;;0.30;;
72547;SDS011;60570;50.848;6.776;2022-10-16T04:52:13;0.22;;;0.20;;
72547;SDS011;60570;50.848;6.776;2022-10-16T04:53:13;0.98;;;0.20;;
72547;SDS011;60570;50.848;6.776;2022-10-16T04:54:14;0.65;;;0.22;;
72547;SDS011;60570;50.848;6.776;2022-10-16T04:55:14;0.50;;;0.20;;
72547;SDS011;60570;50.848;6.776;2022-10-16T04:56:15;0.90;;;0.22;;
72547;SDS011;60570;50.848;6.776;2022-10-16T04:57:16;0.43;;;0.20;;
72547;SDS011;60570;50.848;6.776;2022-10-16T04:58:17;1.85;;;0.30;;
72547;SDS011;60570;50.848;6.776;2022-10-16T04:59:18;1.17;;;0.30;;
72547;SDS011;60570;50.848;6.776;2022-10-16T05:00:19;0.50;;;0.20;;
72547;SDS011;60570;50.848;6.776;2022-10-16T05:01:19;1.55;;;0.40;;
72547;SDS011;60570;50.848;6.776;2022-10-16T05:02:20;1.25;;;0.20;;
72547;SDS011;60570;50.848;6.776;2022-10-16T05:03:20;0.50;;;0.13;;
72547;SDS011;60570;50.848;6.776;2022-10-16T05:04:21;2.40;;;0.57;;
72547;SDS011;60570;50.848;6.776;2022-10-16T05:05:22;0.88;;;0.28;;
72547;SDS011;60570;50.848;6.776;2022-10-16T05:06:23;2.30;;;0.20;;
72547;SDS011;60570;50.848;6.776;2022-10-16T05:07:23;1.60;;;0.40;;
72547;SDS011;60570;50.848;6.776;2022-10-16T05:08:24;1.17;;;0.30;;
72547;SDS011;60570;50.848;6.776;2022-10-16T05:09:24;0.60;;;0.20;;
72547;SDS011;60570;50.848;6.776;2022-10-16T05:10:25;0.77;;;0.20;;
72547;SDS011;60570;50.848;6.776;2022-10-16T05:11:25;5.80;;;0.40;;
72547;SDS011;60570;50.848;6.776;2022-10-16T05:12:26;1.02;;;0.30;;
72547;SDS011;60570;50.848;6.776;2022-10-16T05:13:26;0.22;;;0.13;;
72547;SDS011;60570;50.848;6.776;2022-10-16T05:14:27;0.85;;;0.20;;
72547;SDS011;60570;50.848;6.776;2022-10-16T05:15:27;1.33;;;0.22;;
72547;SDS011;60570;50.848;6.776;2022-10-16T05:16:28;0.57;;;0.10;;
72547;SDS011;60570;50.848;6.776;2022-10-16T05:17:30;2.85;;;0.32;;
72547;SDS011;60570;50.848;6.776;2022-10-16T05:18:31;0.50;;;0.20;;
72547;SDS011;60570;50.848;6.776;2022-10-16T05:19:31;1.38;;;0.20;;
72547;SDS011;60570;50.848;6.776;2022-10-16T05:20:32;1.27;;;0.20;;
72547;SDS011;60570;50.848;6.776;2022-10-16T05:21:32;0.80;;;0.30;;
72547;SDS011;60570;50.848;6.776;2022-10-16T05:22:33;0.75;;;0.30;;
72547;SDS011;60570;50.848;6.776;2022-10-16T05:23:33;1.58;;;0.20;;
72547;SDS011;60570;50.848;6.776;2022-10-16T05:24:34;0.57;;;0.25;;
72547;SDS011;60570;50.848;6.776;2022-10-16T05:25:34;0.40;;;0.20;;
72547;SDS011;60570;50.848;6.776;2022-10-16T05:26:35;0.52;;;0.20;;
72547;SDS011;60570;50.848;6.776;2022-10-16T05:27:35;0.95;;;0.20;;
72547;SDS011;60570;50.848;6.776;2022-10-16T05:28:36;1.67;;;0.20;;
72547;SDS011;60570;50.848;6.776;2022-10-16T05:29:36;0.52;;;0.28;;
72547;SDS011;60570;50.848;6.776;2022-10-16T05:30:37;0.32;;;0.20;;
72547;SDS011;60570;50.848;6.776;2022-10-16T05:31:38;0.57;;;0.30;;
72547;SDS011;60570;50.848;6.776;2022-10-16T05:32:38;1.23;;;0.25;;
72547;SDS011;60570;50.848;6.776;2022-10-16T05:33:39;0.82;;;0.13;;
72547;SDS011;60570;50.848;6.776;2022-10-16T05:34:39;0.45;;;0.15;;
72547;SDS011;60570;50.848;6.776;2022-10-16T05:35:40;0.47;;;0.20;;
72547;SDS011;60570;50.848;6.776;2022-10-16T05:36:40;1.05;;;0.22;;
72547;SDS011;60570;50.848;6.776;2022-10-16T05:37:41;2.08;;;0.40;;
72547;SDS011;60570;50.848;6.776;2022-10-16T05:38:41;0.30;;;0.20;;
72547;SDS011;60570;50.848;6.776;2022-10-16T05:39:42;1.38;;;0.20;;
72547;SDS011;60570;50.848;6.776;2022-10-16T05:40:42;1.20;;;0.20;;
72547;SDS011;60570;50.848;6.776;2022-10-16T05:41:43;0.50;;;0.25;;
72547;SDS011;60570;50.848;6.776;2022-10-16T05:42:44;0.88;;;0.30;;
72547;SDS011;60570;50.848;6.776;2022-10-16T05:43:45;1.40;;;0.50;;
72547;SDS011;60570;50.848;6.776;2022-10-16T05:44:46;0.60;;;0.25;;
72547;SDS011;60570;50.848;6.776;2022-10-16T05:46:05;0.65;;;0.25;;
72547;SDS011;60570;50.848;6.776;2022-10-16T05:47:06;0.43;;;0.10;;
72547;SDS011;60570;50.848;6.776;2022-10-16T05:48:07;1.73;;;0.30;;
72547;SDS011;60570;50.848;6.776;2022-10-16T05:49:07;0.80;;;0.30;;
72547;SDS011;60570;50.848;6.776;2022-10-16T05:50:07;1.00;;;0.40;;
72547;SDS011;60570;50.848;6.776;2022-10-16T05:51:10;0.43;;;0.28;;
72547;SDS011;60570;50.848;6.776;2022-10-16T05:52:11;0.50;;;0.20;;
72547;SDS011;60570;50.848;6.776;2022-10-16T05:53:12;1.05;;;0.30;;
72547;SDS011;60570;50.848;6.776;2022-10-16T05:54:12;0.85;;;0.35;;
72547;SDS011;60570;50.848;6.776;2022-10-16T05:55:13;0.47;;;0.13;;
72547;SDS011;60570;50.848;6.776;2022-10-16T05:56:13;0.52;;;0.20;;
72547;SDS011;60570;50.848;6.776;2022-10-16T05:57:14;0.25;;;0.20;;
72547;SDS011;60570;50.848;6.776;2022-10-16T05:58:15;2.00;;;0.30;;
72547;SDS011;60570;50.848;6.776;2022-10-16T05:59:15;2.70;;;0.40;;
72547;SDS011;60570;50.848;6.776;2022-10-16T06:00:16;0.77;;;0.30;;
72547;SDS011;60570;50.848;6.776;2022-10-16T06:01:17;0.80;;;0.28;;
72547;SDS011;60570;50.848;6.776;2022-10-16T06:02:19;0.73;;;0.32;;
72547;SDS011;60570;50.848;6.776;2022-10-16T06:03:19;0.70;;;0.30;;
72547;SDS011;60570;50.848;6.776;2022-10-16T06:04:19;0.55;;;0.20;;
72547;SDS011;60570;50.848;6.776;2022-10-16T06:05:20;0.60;;;0.30;;
72547;SDS011;60570;50.848;6.776;2022-10-16T06:06:21;1.25;;;0.30;;
72547;SDS011;60570;50.848;6.776;2022-10-16T06:07:25;1.17;;;0.30;;
72547;SDS011;60570;50.848;6.776;2022-10-16T06:08:26;0.70;;;0.35;;
72547;SDS011;60570;50.848;6.776;2022-10-16T06:09:26;2.40;;;0.50;;
72547;SDS011;60570;50.848;6.776;2022-10-16T06:10:27;0.60;;;0.32;;
72547;SDS011;60570;50.848;6.776;2022-10-16T06:11:29;1.65;;;0.32;;
72547;SDS011;60570;50.848;6.776;2022-10-16T06:12:31;1.05;;;0.32;;
72547;SDS011;60570;50.848;6.776;2022-10-16T06:13:32;1.25;;;0.50;;
72547;SDS011;60570;50.848;6.776;2022-10-16T06:14:32;1.30;;;0.50;;
72547;SDS011;60570;50.848;6.776;2022-10-16T06:15:33;1.00;;;0.43;;
72547;SDS011;60570;50.848;6.776;2022-10-16T06:16:34;0.88;;;0.45;;
72547;SDS011;60570;50.848;6.776;2022-10-16T06:17:35;1.35;;;0.40;;
72547;SDS011;60570;50.848;6.776;2022-10-16T06:18:36;1.42;;;0.63;;
72547;SDS011;60570;50.848;6.776;2022-10-16T06:19:36;1.10;;;0.50;;
72547;SDS011;60570;50.848;6.776;2022-10-16T06:20:37;0.75;;;0.35;;
72547;SDS011;60570;50.848;6.776;2022-10-16T06:21:37;1.13;;;0.32;;
72547;SDS011;60570;50.848;6.776;2022-10-16T06:22:38;0.80;;;0.40;;
72547;SDS011;60570;50.848;6.776;2022-10-16T06:23:38;1.88;;;0.60;;
72547;SDS011;60570;50.848;6.776;2022-10-16T06:24:39;2.13;;;0.43;;
72547;SDS011;60570;50.848;6.776;2022-10-16T06:25:39;0.57;;;0.35;;
72547;SDS011;60570;50.848;6.776;2022-10-16T06:26:39;0.55;;;0.30;;
72547;SDS011;60570;50.848;6.776;2022-10-16T06:27:40;1.35;;;0.40;;
72547;SDS011;60570;50.848;6.776;2022-10-16T06:28:40;1.15;;;0.40;;
72547;SDS011;60570;50.848;6.776;2022-10-16T06:29:41;1.45;;;0.40;;
72547;SDS011;60570;50.848;6.776;2022-10-16T06:30:43;1.45;;;0.50;;
72547;SDS011;60570;50.848;6.776;2022-10-16T06:31:46;0.85;;;0.40;;
72547;SDS011;60570;50.848;6.776;2022-10-16T06:32:46;2.83;;;0.77;;